Weather History for Hays, KS

Change the Weather History Date:

Monday, February 3, 2014

  Actual Average Record
Temperature  
Mean Temperature 19 °F -  
Max Temperature 30 °F 39 °F 59 °F (2005)
Min Temperature 8 °F 19 °F -5 °F (2011)
Degree Days  
Heating Degree Days 46    
Moisture  
Dew Point 11 °F    
Average Humidity 65    
Maximum Humidity 85    
Minimum Humidity 47    
Precipitation  
Precipitation 0.00 in - - ()
Sea Level Pressure  
Sea Level Pressure 30.09 in    
Wind  
Wind Speed 9 mph (SE)    
Max Wind Speed 22 mph    
Max Gust Speed 24 mph    
Visibility 10 miles    
Events      
Averages and records for this station are not official NWS values.
T = Trace of Precipitation, MM = Missing Value Source: NWS Daily Summary

Daily Weather History Graph

Daily Weather History Graph

Search for Another Location

Airport:

Trip Planner

Search our weather history database for the weather conditions in past years. The results will help you decide how hot, cold, wet, or windy it might be!

Date:

Astronomy

Feb. 03, 2014 Rise Set
Actual Time 7:41 AM CST 6:01 PM CST
Civil Twilight 7:13 AM CST 6:29 PM CST
Nautical Twilight 6:41 AM CST 7:00 PM CST
Astronomical Twilight 6:10 AM CST 7:32 PM CST
Moon 9:47 AM CST (2/3) 10:49 PM CST (2/3)
Length of Visible Light 11h 15m
Length of Day
10h 19m
Waxing Crescent, 20% of the Moon is Illuminated
Feb 3
Waxing Crescent
Feb 6
First Quarter
Feb 14
Full
Feb 22
Last Quarter
Mar 1
New

Hourly Weather History & Observations

Time (CST) Temp. Windchill Dew Point Humidity Pressure Visibility Wind Dir Wind Speed Gust Speed Precip Events Conditions
12:15 AM 14.0 °F 2.9 °F 6.8 °F 73% 30.20 in 10.0 mi South 8.1 mph - N/A   Clear
12:35 AM 14.0 °F 5.1 °F 6.8 °F 73% 30.19 in 10.0 mi SSW 5.8 mph - N/A   Clear
12:55 AM 12.2 °F 2.9 °F 5.0 °F 73% 30.19 in 10.0 mi South 5.8 mph - N/A   Clear
1:15 AM 12.2 °F 1.7 °F 6.8 °F 79% 30.18 in 10.0 mi South 6.9 mph - N/A   Clear
1:35 AM 12.2 °F 4.3 °F 3.2 °F 67% 30.17 in 10.0 mi South 4.6 mph - N/A   Clear
1:55 AM 12.2 °F - 6.8 °F 79% 30.17 in 10.0 mi Calm Calm - N/A   Clear
2:15 AM 12.2 °F - 6.8 °F 79% 30.17 in 10.0 mi Calm Calm - N/A   Clear
2:35 AM 12.2 °F 6.1 °F 6.8 °F 79% 30.17 in 10.0 mi SE 3.5 mph - N/A   Clear
2:55 AM 12.2 °F - 6.8 °F 79% 30.16 in 10.0 mi Calm Calm - N/A   Clear
3:15 AM 12.2 °F - 5.0 °F 73% 30.15 in 10.0 mi Calm Calm - N/A   Clear
3:35 AM 12.2 °F 4.3 °F 6.8 °F 79% 30.14 in 10.0 mi SSE 4.6 mph - N/A   Clear
3:55 AM 10.4 °F 0.8 °F 3.2 °F 73% 30.13 in 10.0 mi SSE 5.8 mph - N/A   Clear
4:15 AM 10.4 °F -0.4 °F 3.2 °F 73% 30.13 in 10.0 mi SSE 6.9 mph - N/A   Clear
4:35 AM 8.6 °F -3.7 °F 3.2 °F 79% 30.13 in 10.0 mi South 8.1 mph - N/A   Clear
4:55 AM 8.6 °F -2.6 °F 3.2 °F 79% 30.14 in 10.0 mi South 6.9 mph - N/A   Clear
5:15 AM 8.6 °F -2.6 °F 3.2 °F 79% 30.14 in 10.0 mi South 6.9 mph - N/A   Clear
5:35 AM 10.4 °F 4.0 °F 3.2 °F 73% 30.13 in 10.0 mi SE 3.5 mph - N/A   Clear
5:55 AM 10.4 °F 0.8 °F 6.8 °F 85% 30.12 in 10.0 mi SSE 5.8 mph - N/A   Clear
6:15 AM 10.4 °F 0.8 °F 5.0 °F 79% 30.13 in 10.0 mi SE 5.8 mph - N/A   Clear
6:35 AM 10.4 °F -0.4 °F 6.8 °F 85% 30.12 in 10.0 mi SE 6.9 mph - N/A   Clear
6:55 AM 10.4 °F 0.8 °F 5.0 °F 79% 30.13 in 10.0 mi SSE 5.8 mph - N/A   Clear
7:15 AM 12.2 °F - 6.8 °F 79% 30.14 in 10.0 mi Calm Calm - N/A   Clear
7:35 AM 14.0 °F 3.9 °F 8.6 °F 79% 30.13 in 10.0 mi ESE 6.9 mph - N/A   Clear
7:55 AM 14.0 °F 5.1 °F 6.8 °F 73% 30.13 in 10.0 mi SE 5.8 mph - N/A   Clear
8:15 AM 14.0 °F 5.1 °F 8.6 °F 79% 30.13 in 10.0 mi SSE 5.8 mph - N/A   Clear
8:35 AM 15.8 °F 6.1 °F 10.4 °F 79% 30.13 in 10.0 mi SSE 6.9 mph - N/A   Clear
8:55 AM 17.6 °F 8.2 °F 10.4 °F 73% 30.15 in 10.0 mi SSE 6.9 mph - N/A   Mostly Cloudy
9:15 AM 19.4 °F 7.9 °F 12.2 °F 74% 30.15 in 10.0 mi South 10.4 mph - N/A   Overcast
9:35 AM 21.2 °F 8.9 °F 12.2 °F 68% 30.15 in 10.0 mi South 12.7 mph - N/A   Overcast
9:55 AM 23.0 °F 9.6 °F 12.2 °F 63% 30.14 in 10.0 mi South 16.1 mph - N/A   Mostly Cloudy
10:15 AM 24.8 °F 13.4 °F 12.2 °F 59% 30.14 in 10.0 mi South 12.7 mph 19.6 mph N/A   Mostly Cloudy
10:35 AM 26.6 °F 13.8 °F 15.8 °F 64% 30.14 in 10.0 mi South 17.3 mph 23.0 mph N/A   Overcast
10:55 AM 26.6 °F 14.3 °F 12.2 °F 55% 30.13 in 10.0 mi South 16.1 mph - N/A   Overcast
11:15 AM 26.6 °F 13.8 °F 12.2 °F 55% 30.13 in 10.0 mi South 17.3 mph - N/A   Overcast
11:35 AM 26.6 °F 13.8 °F 12.2 °F 55% 30.11 in 10.0 mi SSE 17.3 mph - N/A   Overcast
11:55 AM 26.6 °F 13.1 °F 12.2 °F 55% 30.12 in 10.0 mi SSE 19.6 mph - N/A   Overcast
12:15 PM 28.4 °F 15.4 °F 12.2 °F 51% 30.10 in 10.0 mi SSE 19.6 mph 23.0 mph N/A   Overcast
12:35 PM 28.4 °F 15.1 °F 12.2 °F 51% 30.07 in 10.0 mi SE 20.7 mph - N/A   Overcast
12:55 PM 28.4 °F 14.7 °F 15.8 °F 59% 30.06 in 10.0 mi SSE 21.9 mph - N/A   Overcast
1:15 PM 30.2 °F 17.1 °F 15.8 °F 55% 30.05 in 10.0 mi SSE 21.9 mph - N/A   Overcast
1:35 PM 28.4 °F 16.2 °F 12.2 °F 51% 30.05 in 10.0 mi SSE 17.3 mph - N/A   Overcast
1:55 PM 28.4 °F 15.4 °F 14.0 °F 55% 30.04 in 10.0 mi SSE 19.6 mph - N/A   Overcast
2:15 PM 28.4 °F 15.4 °F 14.0 °F 55% 30.04 in 10.0 mi SSE 19.6 mph 24.2 mph N/A   Overcast
2:35 PM 28.4 °F 15.8 °F 14.0 °F 55% 30.03 in 10.0 mi SSE 18.4 mph - N/A   Overcast
2:55 PM 28.4 °F 16.2 °F 14.0 °F 55% 30.02 in - SSE 17.3 mph - N/A   Overcast
3:15 PM 28.4 °F 15.4 °F 14.0 °F 55% 30.01 in - SSE 19.6 mph - N/A   Overcast
3:35 PM 30.2 °F 18.1 °F 14.0 °F 51% 30.02 in - SSE 18.4 mph - N/A   Overcast
3:55 PM 30.2 °F 18.5 °F 12.2 °F 47% 30.02 in - SSE 17.3 mph - N/A   Overcast
4:15 PM 30.2 °F 19.3 °F 12.2 °F 47% 30.02 in - SSE 15.0 mph - N/A   Overcast
4:35 PM 30.2 °F 20.8 °F 14.0 °F 51% 30.02 in - SE 11.5 mph 17.3 mph N/A   Overcast
4:55 PM 30.2 °F 19.8 °F 15.8 °F 55% 30.02 in - SSE 13.8 mph - N/A   Overcast
5:15 PM 30.2 °F 19.8 °F 15.8 °F 55% 30.02 in - SE 13.8 mph - N/A   Overcast
5:35 PM 30.2 °F 19.8 °F 15.8 °F 55% 30.02 in - SE 13.8 mph - N/A   Overcast
5:55 PM 30.2 °F 20.8 °F 15.8 °F 55% 30.02 in - SE 11.5 mph - N/A   Overcast
6:15 PM 30.2 °F 21.3 °F 15.8 °F 55% 30.02 in - ESE 10.4 mph - N/A   Overcast
6:35 PM 30.2 °F 21.3 °F 15.8 °F 55% 30.02 in - ESE 10.4 mph - N/A   Overcast
7:15 PM 30.2 °F 23.4 °F 14.0 °F 51% 30.03 in - East 6.9 mph - N/A   Overcast
7:35 PM 28.4 °F 20.4 °F 14.0 °F 55% 30.04 in - East 8.1 mph - N/A   Overcast
7:55 PM 28.4 °F 20.4 °F 15.8 °F 59% 30.05 in - East 8.1 mph - N/A   Overcast
8:15 PM 28.4 °F 20.4 °F 15.8 °F 59% 30.04 in - East 8.1 mph - N/A   Overcast
8:35 PM 28.4 °F 21.2 °F 15.8 °F 59% 30.05 in - East 6.9 mph - N/A   Overcast
8:55 PM 28.4 °F 21.2 °F 15.8 °F 59% 30.05 in - East 6.9 mph - N/A   Overcast
9:15 PM 28.4 °F 20.4 °F 15.8 °F 59% 30.05 in - East 8.1 mph - N/A   Overcast
9:35 PM 28.4 °F 21.2 °F 15.8 °F 59% 30.05 in - East 6.9 mph - N/A   Overcast
9:55 PM 28.4 °F 21.2 °F 15.8 °F 59% 30.05 in - NE 6.9 mph - N/A   Overcast
10:15 PM 28.4 °F 19.7 °F 17.6 °F 64% 30.05 in - ENE 9.2 mph - N/A   Overcast
10:35 PM 28.4 °F 19.7 °F 17.6 °F 64% 30.05 in - ENE 9.2 mph - N/A   Overcast
10:55 PM 28.4 °F 19.7 °F 17.6 °F 64% 30.06 in - NE 9.2 mph - N/A   Overcast
11:15 PM 26.6 °F 16.2 °F 17.6 °F 69% 30.06 in - NE 11.5 mph - N/A   Overcast
11:35 PM 26.6 °F 16.8 °F 17.6 °F 69% 30.05 in - ENE 10.4 mph - N/A   Overcast
11:55 PM 26.6 °F 16.2 °F 17.6 °F 69% 30.05 in - ENE 11.5 mph - N/A   Overcast